createdAt,value
2022-11-27T00:01:26.867Z,8.59
2022-11-27T00:06:31.225Z,8.49
2022-11-27T00:11:49.109Z,8.45
2022-11-27T00:27:55.316Z,8.6
2022-11-27T00:33:01.336Z,8.58
2022-11-27T00:38:07.392Z,8.61
2022-11-27T00:43:13.737Z,8.54
2022-11-27T00:48:23.556Z,8.48
2022-11-27T00:53:29.663Z,8.56
2022-11-27T00:58:35.272Z,8.51
2022-11-27T01:03:46.904Z,8.56
2022-11-27T01:14:35.596Z,8.65
2022-11-27T01:19:46.852Z,8.67
2022-11-27T01:24:52.735Z,8.58
2022-11-27T01:29:59.225Z,8.58
2022-11-27T01:35:10.413Z,8.46
2022-11-27T01:40:14.871Z,8.6
2022-11-27T01:45:21.407Z,8.51
2022-11-27T01:50:29.306Z,8.53
2022-11-27T01:55:35.580Z,8.51
2022-11-27T02:00:41.926Z,8.62
2022-11-27T02:05:48.053Z,8.49
2022-11-27T02:16:36.647Z,8.4
2022-11-27T02:27:14.977Z,8.26
2022-11-27T02:32:21.758Z,8.19
2022-11-27T02:37:25.066Z,8.08
2022-11-27T02:42:31.246Z,7.93
2022-11-27T02:47:37.273Z,7.83
2022-11-27T02:52:44.493Z,7.86
2022-11-27T02:57:50.848Z,7.92
2022-11-27T03:02:57.815Z,7.93
2022-11-27T03:13:44.765Z,7.72
2022-11-27T03:18:48.144Z,7.77
2022-11-27T03:23:54.081Z,7.73
2022-11-27T03:29:00.280Z,7.68
2022-11-27T03:34:05.985Z,7.72
2022-11-27T03:39:12.278Z,7.61
2022-11-27T03:44:19.345Z,7.62
2022-11-27T03:49:29.257Z,7.57
2022-11-27T03:54:36.657Z,7.51
2022-11-27T03:59:45.947Z,7.49
2022-11-27T04:04:56.937Z,7.46
2022-11-27T04:10:04.017Z,7.45
2022-11-27T04:15:10.273Z,7.37
2022-11-27T04:20:16.159Z,7.24
2022-11-27T04:25:31.176Z,7.17
2022-11-27T04:30:46.661Z,7.05
2022-11-27T04:35:56.033Z,6.94
2022-11-27T04:41:04.809Z,6.63
2022-11-27T04:46:12.273Z,6.5
2022-11-27T04:51:18.362Z,6.45
2022-11-27T04:56:25.193Z,6.25
2022-11-27T05:01:34.315Z,6.1
2022-11-27T05:06:38.441Z,6.02
2022-11-27T05:11:44.432Z,6.02
2022-11-27T05:17:02.396Z,5.8
2022-11-27T05:22:08.609Z,5.77
2022-11-27T05:27:14.665Z,5.64
2022-11-27T05:32:20.548Z,5.63
2022-11-27T05:37:28.495Z,5.64
2022-11-27T05:42:34.376Z,5.49
2022-11-27T05:53:11.048Z,5.49
2022-11-27T05:58:17.013Z,5.38
2022-11-27T06:03:22.608Z,5.3
2022-11-27T06:08:34.489Z,5.22
2022-11-27T06:13:40.538Z,5.26
2022-11-27T06:18:46.513Z,5.12
2022-11-27T06:23:52.817Z,5.15
2022-11-27T06:28:58.889Z,5.14
2022-11-27T06:39:38.415Z,5.17
2022-11-27T06:44:44.116Z,5.24
2022-11-27T06:49:50.312Z,5.19
2022-11-27T06:54:58.344Z,5.14
2022-11-27T07:00:04.289Z,5.11
2022-11-27T07:10:41.529Z,5.22
2022-11-27T07:15:46.917Z,5.29
2022-11-27T07:20:56.337Z,5.14
2022-11-27T07:25:58.879Z,5.05
2022-11-27T07:31:05.788Z,5.24
2022-11-27T07:36:11.860Z,5.35
2022-11-27T07:46:53.985Z,5.4
2022-11-27T07:57:31.254Z,5.43
2022-11-27T08:02:38.522Z,5.33
2022-11-27T08:13:15.971Z,5.57
2022-11-27T08:18:19.768Z,5.57
2022-11-27T08:23:30.990Z,5.6
2022-11-27T08:28:37.395Z,5.81
2022-11-27T08:33:49.117Z,5.87
2022-11-27T08:49:50.466Z,6.47
2022-11-27T08:54:58.147Z,6.33
2022-11-27T09:00:03.678Z,6.6
2022-11-27T09:27:10.919Z,7.29
2022-11-27T09:37:49.968Z,7.62
2022-11-27T09:42:55.606Z,7.92
2022-11-27T09:48:01.672Z,8.02
2022-11-27T10:33:05.678Z,9.31
2022-11-27T11:31:40.040Z,10.42
2022-11-27T11:36:45.783Z,10.28
2022-11-27T11:46:55.932Z,10.43
2022-11-27T11:51:59.166Z,10.32
2022-11-27T12:08:10.697Z,10.06
2022-11-27T12:24:28.336Z,8.97
2022-11-27T12:29:34.284Z,9.09
2022-11-27T12:39:49.526Z,8.99
2022-11-27T12:44:55.891Z,9.06
2022-11-27T12:50:02.820Z,9.56
2022-11-27T12:55:10.209Z,9.41
2022-11-27T13:00:16.302Z,9.14
2022-11-27T13:05:22.346Z,9.38
2022-11-27T13:10:28.288Z,9.39
2022-11-27T13:15:33.128Z,9.29
2022-11-27T13:20:39.329Z,8.95
2022-11-27T13:25:45.641Z,8.93
2022-11-27T13:30:51.425Z,8.71
2022-11-27T13:35:59.341Z,8.52
2022-11-27T13:41:03.596Z,8.42
2022-11-27T13:46:09.443Z,8.29
2022-11-27T13:51:15.751Z,8.23
2022-11-27T13:56:21.918Z,8.19
2022-11-27T14:01:27.886Z,8.1
2022-11-27T14:06:34.190Z,8.14
2022-11-27T14:11:40.603Z,7.99
2022-11-27T14:16:46.703Z,7.92
2022-11-27T14:21:54.566Z,7.91
2022-11-27T14:27:00.818Z,7.93
2022-11-27T14:32:08.564Z,7.83
2022-11-27T14:37:13.096Z,7.8
2022-11-27T14:42:19.049Z,7.76
2022-11-27T14:47:23.346Z,7.73
2022-11-27T14:52:31.101Z,7.69
2022-11-27T14:57:36.161Z,7.57
2022-11-27T15:02:42.014Z,7.6
2022-11-27T15:07:51.378Z,7.56
2022-11-27T15:12:57.748Z,7.5
2022-11-27T15:18:03.807Z,7.54
2022-11-27T15:23:10.863Z,7.46
2022-11-27T15:28:16.980Z,7.48
2022-11-27T15:33:23.133Z,7.37
2022-11-27T15:43:59.311Z,7.35
2022-11-27T15:49:02.796Z,7.3
2022-11-27T15:54:06.574Z,7.26
2022-11-27T15:59:13.249Z,7.22
2022-11-27T16:04:18.547Z,7.21
2022-11-27T16:09:21.822Z,7.23
2022-11-27T16:14:27.680Z,7.17
2022-11-27T16:19:35.378Z,7.16
2022-11-27T16:24:39.768Z,7.18
2022-11-27T16:29:42.861Z,7.14
2022-11-27T16:34:46.563Z,7.19
2022-11-27T16:39:50.349Z,7.11
2022-11-27T16:44:54.400Z,7.14
2022-11-27T16:49:58.592Z,7.14
2022-11-27T16:55:01.818Z,7.21
2022-11-27T17:00:06.467Z,7.13
2022-11-27T17:05:16.145Z,7.14
2022-11-27T17:10:20.824Z,7.11
2022-11-27T17:15:24.164Z,7.11
2022-11-27T17:20:30.276Z,7.13
2022-11-27T17:25:43.014Z,7.07
2022-11-27T17:30:45.071Z,7.04
2022-11-27T17:35:50.850Z,7.06
2022-11-27T17:40:54.745Z,7.02
2022-11-27T17:46:06.324Z,7.04
2022-11-27T17:51:03.839Z,7.02
2022-11-27T17:56:07.475Z,7.01
2022-11-27T18:01:13.409Z,6.93
2022-11-27T18:06:20.374Z,7
2022-11-27T18:11:39.105Z,7
2022-11-27T18:16:42.878Z,7.01
2022-11-27T18:21:55.238Z,6.98
2022-11-27T18:27:07.975Z,6.98
2022-11-27T18:32:02.909Z,7
2022-11-27T18:54:06.645Z,6.91
2022-11-27T18:59:13.932Z,6.82
2022-11-27T19:04:17.385Z,6.7
2022-11-27T19:09:20.795Z,6.66
2022-11-27T19:14:28.242Z,6.58
2022-11-27T19:19:54.511Z,6.53
2022-11-27T19:24:41.353Z,6.42
2022-11-27T19:29:44.729Z,6.42
2022-11-27T19:34:51.227Z,6.45
2022-11-27T19:39:55.010Z,6.35
2022-11-27T19:44:58.202Z,6.38
2022-11-27T19:50:06.439Z,6.38
2022-11-27T20:00:47.738Z,6.4
2022-11-27T20:05:47.547Z,6.4
2022-11-27T20:10:53.538Z,6.38
2022-11-27T20:15:58.936Z,6.31
2022-11-27T20:26:32.467Z,6.24
2022-11-27T20:31:34.932Z,6.22
2022-11-27T20:42:14.484Z,6.09
2022-11-27T20:47:19.581Z,6.03
2022-11-27T20:52:25.580Z,5.99
2022-11-27T20:57:29.043Z,5.97
2022-11-27T21:02:37.864Z,6.04
2022-11-27T21:07:44.294Z,6
2022-11-27T21:12:48.082Z,5.98
2022-11-27T21:17:55.063Z,6.04
2022-11-27T21:28:28.267Z,5.99
2022-11-27T21:33:34.870Z,5.99
2022-11-27T21:38:41.821Z,5.97
2022-11-27T21:43:52.706Z,5.96
2022-11-27T21:49:05.296Z,5.96
2022-11-27T21:59:15.944Z,6.01
2022-11-27T22:04:21.697Z,5.94
2022-11-27T22:09:27.891Z,5.92
2022-11-27T22:14:33.834Z,5.88
2022-11-27T22:24:44.815Z,5.91
2022-11-27T22:29:50.681Z,5.85
2022-11-27T22:34:59.473Z,5.87
2022-11-27T22:40:05.896Z,5.78
2022-11-27T22:45:14.414Z,5.76
2022-11-27T22:50:21.622Z,5.76
2022-11-27T22:55:27.913Z,5.73
2022-11-27T23:00:31.470Z,5.82
2022-11-27T23:05:37.673Z,5.78
2022-11-27T23:10:43.948Z,5.81
2022-11-27T23:21:52.870Z,5.75
2022-11-27T23:26:59.977Z,5.75
2022-11-27T23:32:05.627Z,5.71
2022-11-27T23:37:10.162Z,5.7
2022-11-27T23:42:16.400Z,5.65
2022-11-27T23:47:22.287Z,5.66
2022-11-27T23:52:28.329Z,5.58
2022-11-27T23:57:33.859Z,5.61
